Time;durP1;ratioP1;P1;durP2;ratioP2;P2;SDS_P1;SDS_P2;PMS_P1;PMS_P2;Temp;Humidity;BMP_temperature;BMP_pressure;BME280_temperature;BME280_humidity;BME280_pressure;Samples;Min_cycle;Max_cycle;Signal;HPM_P1;HPM_P2
2022/06/01 00:00:17;;;;;;;8.03;5.80;;;;;11.20;100725.00;;;;4999506;28;20234;-69
2022/06/01 00:03:03;;;;;;;6.10;5.50;;;;;11.20;100724.00;;;;4995483;28;20230;-71
2022/06/01 00:05:53;;;;;;;7.03;5.67;;;;;11.20;100728.00;;;;5008552;28;20357;-69
2022/06/01 00:08:40;;;;;;;7.27;5.60;;;;;11.10;100735.00;;;;4995135;28;20306;-69
2022/06/01 00:11:27;;;;;;;7.13;5.30;;;;;11.10;100736.00;;;;4988206;28;20229;-70
2022/06/01 00:14:14;;;;;;;7.50;5.43;;;;;11.20;100724.00;;;;5000105;28;20235;-71
2022/06/01 00:17:01;;;;;;;7.47;5.40;;;;;11.10;100730.00;;;;4998270;28;20370;-71
2022/06/01 00:19:47;;;;;;;6.53;4.93;;;;;11.10;100720.00;;;;4998609;28;20437;-69
2022/06/01 00:22:33;;;;;;;6.13;5.23;;;;;11.20;100734.00;;;;4997541;28;20238;-70
2022/06/01 00:25:20;;;;;;;7.20;5.57;;;;;11.20;100728.00;;;;4998323;28;20704;-70
2022/06/01 00:28:07;;;;;;;6.00;4.87;;;;;11.30;100724.00;;;;4999486;28;20228;-70
2022/06/01 00:30:53;;;;;;;7.70;5.57;;;;;11.40;100730.00;;;;4997161;28;20241;-71
2022/06/01 00:33:42;;;;;;;7.60;5.20;;;;;11.40;100726.00;;;;4999182;28;20315;-71
2022/06/01 00:36:29;;;;;;;7.20;5.10;;;;;11.40;100735.00;;;;4996625;28;20590;-71
2022/06/01 00:39:15;;;;;;;7.50;5.37;;;;;11.30;100726.00;;;;4998746;28;20238;-71
2022/06/01 00:42:13;;;;;;;7.33;5.53;;;;;11.30;100731.00;;;;4996153;28;20309;-71
2022/06/01 00:45:00;;;;;;;7.93;5.73;;;;;11.30;100729.00;;;;4996272;28;20305;-71
2022/06/01 00:47:46;;;;;;;8.57;5.90;;;;;11.30;100729.00;;;;5001968;28;20275;-71
2022/06/01 00:50:37;;;;;;;7.50;5.07;;;;;11.20;100727.00;;;;5003408;28;20245;-70
2022/06/01 00:53:27;;;;;;;6.87;5.67;;;;;11.20;100741.00;;;;5000692;28;20238;-71
2022/06/01 00:56:18;;;;;;;7.03;5.50;;;;;11.20;100740.00;;;;5001340;28;20710;-71
2022/06/01 00:59:09;;;;;;;8.47;5.50;;;;;11.20;100742.00;;;;5001284;28;20237;-71
2022/06/01 01:01:57;;;;;;;8.20;6.10;;;;;11.30;100735.00;;;;5005793;28;20221;-71
2022/06/01 01:04:43;;;;;;;7.27;5.27;;;;;11.30;100735.00;;;;5006008;28;20258;-71
2022/06/01 01:07:31;;;;;;;8.77;6.17;;;;;11.30;100705.00;;;;5002254;28;20220;-71
2022/06/01 01:10:18;;;;;;;7.43;5.37;;;;;11.30;100731.00;;;;5003314;28;20232;-71
2022/06/01 01:13:08;;;;;;;6.30;5.07;;;;;11.20;100731.00;;;;4999212;28;20233;-71
2022/06/01 01:15:55;;;;;;;8.27;5.83;;;;;11.20;100729.00;;;;5000460;28;20601;-71
2022/06/01 01:18:45;;;;;;;7.87;5.50;;;;;11.30;100736.00;;;;5006893;28;20229;-71
2022/06/01 01:21:46;;;;;;;7.70;5.47;;;;;11.30;100730.00;;;;4998316;28;20228;-70
2022/06/01 01:24:42;;;;;;;9.37;5.80;;;;;11.30;100742.00;;;;5003224;28;20225;-69
2022/06/01 01:27:29;;;;;;;6.90;5.47;;;;;11.30;100743.00;;;;5007755;28;20701;-70
2022/06/01 01:30:43;;;;;;;9.23;5.93;;;;;11.30;100728.00;;;;5004094;28;20363;-71
2022/06/01 01:33:31;;;;;;;7.87;5.63;;;;;11.30;100724.00;;;;4976066;28;20226;-71
2022/06/01 01:36:21;;;;;;;8.17;5.23;;;;;11.20;100720.00;;;;4983804;28;20229;-71
2022/06/01 01:39:10;;;;;;;8.63;6.37;;;;;11.20;100740.00;;;;4981054;28;20235;-71
2022/06/01 01:41:56;;;;;;;10.40;7.23;;;;;11.20;100726.00;;;;4986467;28;20742;-70
2022/06/01 01:44:48;;;;;;;10.80;7.40;;;;;11.20;100727.00;;;;5005496;28;20229;-70
2022/06/01 01:47:36;;;;;;;10.47;7.30;;;;;11.20;100727.00;;;;5002729;28;20230;-71
2022/06/01 01:50:24;;;;;;;10.20;7.00;;;;;11.20;100720.00;;;;5004267;28;20241;-70
2022/06/01 01:56:13;;;;;;;11.17;7.73;;;;;11.10;100725.00;;;;5585651;22;20740;-75
2022/06/01 01:59:19;;;;;;;10.30;7.50;;;;;11.00;100716.00;;;;5003121;28;20231;-73
2022/06/01 02:02:21;;;;;;;11.13;7.43;;;;;11.00;100722.00;;;;5004553;28;20719;-72
2022/06/01 02:08:25;;;;;;;11.20;7.77;;;;;10.90;100721.00;;;;5004057;28;20227;-72
2022/06/01 02:14:23;;;;;;;13.40;8.80;;;;;10.80;100719.00;;;;5004278;28;20238;-74
2022/06/01 02:17:17;;;;;;;13.60;8.80;;;;;10.70;100695.00;;;;5002945;28;20256;-74
2022/06/01 02:20:10;;;;;;;12.90;8.40;;;;;10.70;100715.00;;;;5007631;28;20226;-75
2022/06/01 02:22:56;;;;;;;14.03;8.67;;;;;10.70;100725.00;;;;4994803;28;20244;-74
2022/06/01 02:25:47;;;;;;;13.20;8.30;;;;;10.60;100726.00;;;;5013268;28;20441;-78
2022/06/01 02:28:35;;;;;;;15.33;8.50;;;;;10.60;100730.00;;;;5020539;28;20462;-74
2022/06/01 02:31:22;;;;;;;13.13;8.13;;;;;10.50;100724.00;;;;5031914;28;20264;-76
2022/06/01 02:34:11;;;;;;;14.53;9.63;;;;;10.50;100718.00;;;;5031937;28;20230;-75
2022/06/01 02:36:59;;;;;;;16.07;9.53;;;;;10.50;100714.00;;;;5031678;28;20253;-75
2022/06/01 02:39:52;;;;;;;18.90;10.90;;;;;10.40;100713.00;;;;5027412;28;20665;-76
2022/06/01 02:42:43;;;;;;;16.87;10.00;;;;;10.40;100715.00;;;;5030947;28;20229;-75
2022/06/01 02:45:30;;;;;;;15.87;9.73;;;;;10.30;100713.00;;;;5031209;28;20302;-78
2022/06/01 02:48:17;;;;;;;15.70;10.00;;;;;10.30;100717.00;;;;5012749;28;20298;-73
2022/06/01 02:51:04;;;;;;;17.00;10.03;;;;;10.20;100708.00;;;;4995316;28;20236;-71
2022/06/01 02:53:51;;;;;;;16.33;10.07;;;;;10.20;100703.00;;;;5003104;28;20320;-74
2022/06/01 02:56:37;;;;;;;17.03;10.90;;;;;10.10;100709.00;;;;5003135;28;20232;-75
2022/06/01 02:59:23;;;;;;;18.40;10.27;;;;;10.10;100706.00;;;;5005226;28;20313;-74
2022/06/01 03:02:10;;;;;;;17.83;10.37;;;;;10.10;100715.00;;;;5001613;28;20253;-74
2022/06/01 03:04:56;;;;;;;18.27;9.90;;;;;10.10;100720.00;;;;5002738;28;20626;-73
2022/06/01 03:07:44;;;;;;;14.33;9.70;;;;;10.00;100724.00;;;;4997441;28;20233;-74
2022/06/01 03:10:31;;;;;;;17.50;10.27;;;;;9.90;100717.00;;;;5003604;28;20734;-74
2022/06/01 03:13:18;;;;;;;18.30;10.40;;;;;9.80;100727.00;;;;5004011;28;20275;-74
2022/06/01 03:16:04;;;;;;;15.87;10.30;;;;;9.90;100722.00;;;;5005098;28;20246;-76
2022/06/01 03:18:51;;;;;;;18.27;10.93;;;;;9.80;100721.00;;;;5000754;28;20244;-74
2022/06/01 03:21:37;;;;;;;21.30;11.27;;;;;9.80;100721.00;;;;5004847;28;20234;-75
2022/06/01 03:24:25;;;;;;;19.07;11.67;;;;;9.80;100723.00;;;;4994259;28;20289;-75
2022/06/01 03:27:11;;;;;;;18.27;11.00;;;;;9.80;100717.00;;;;4999921;28;20243;-76
2022/06/01 03:29:57;;;;;;;20.17;10.80;;;;;9.80;100727.00;;;;4998541;28;20695;-75
2022/06/01 03:32:44;;;;;;;21.90;11.67;;;;;9.80;100726.00;;;;4996326;28;20239;-75
2022/06/01 03:35:33;;;;;;;19.33;11.20;;;;;9.80;100712.00;;;;4998223;28;20238;-73
2022/06/01 03:38:19;;;;;;;22.63;12.50;;;;;9.80;100718.00;;;;4995234;28;20246;-76
2022/06/01 03:41:06;;;;;;;20.87;11.77;;;;;9.80;100730.00;;;;5005117;28;20223;-74
2022/06/01 03:47:01;;;;;;;20.20;11.13;;;;;9.90;100735.00;;;;4995696;28;20232;-75
2022/06/01 03:49:47;;;;;;;19.03;10.87;;;;;9.80;100737.00;;;;4992710;28;20238;-75
2022/06/01 03:52:33;;;;;;;21.23;11.33;;;;;9.90;100727.00;;;;4994258;28;20718;-73
2022/06/01 03:55:20;;;;;;;20.60;11.93;;;;;9.80;100743.00;;;;5002753;28;20287;-75
2022/06/01 03:58:13;;;;;;;23.93;12.60;;;;;9.80;100735.00;;;;5000963;28;20263;-76
2022/06/01 04:01:00;;;;;;;21.30;11.27;;;;;9.80;100737.00;;;;5003828;28;20305;-76
2022/06/01 04:03:47;;;;;;;19.93;12.17;;;;;9.80;100740.00;;;;5004390;28;20357;-75
2022/06/01 04:06:34;;;;;;;21.90;12.27;;;;;9.80;100724.00;;;;5002840;28;20244;-75
2022/06/01 04:09:20;;;;;;;22.40;12.77;;;;;9.70;100742.00;;;;5001444;28;20310;-76
2022/06/01 04:12:07;;;;;;;21.00;12.77;;;;;9.70;100749.00;;;;4999597;28;20233;-75
2022/06/01 04:14:55;;;;;;;20.00;11.73;;;;;9.70;100750.00;;;;5001284;28;20309;-74
2022/06/01 04:17:42;;;;;;;19.57;11.17;;;;;9.60;100750.00;;;;5003564;28;20725;-76
2022/06/01 04:20:28;;;;;;;22.13;11.50;;;;;9.70;100754.00;;;;5002736;28;20249;-76
2022/06/01 04:23:14;;;;;;;21.63;11.43;;;;;9.80;100751.00;;;;4995974;28;20665;-75
2022/06/01 04:26:01;;;;;;;20.37;11.40;;;;;9.80;100752.00;;;;5003127;28;20237;-75
2022/06/01 04:28:47;;;;;;;23.80;12.27;;;;;10.00;100761.00;;;;4991477;28;21124;-73
2022/06/01 04:31:35;;;;;;;19.90;12.23;;;;;10.10;100764.00;;;;4996932;28;20245;-76
2022/06/01 04:34:21;;;;;;;22.47;12.80;;;;;10.30;100758.00;;;;5001456;28;20251;-76
2022/06/01 04:37:08;;;;;;;25.80;13.47;;;;;10.60;100773.00;;;;4998710;28;20268;-76
2022/06/01 04:39:54;;;;;;;26.77;13.87;;;;;10.70;100762.00;;;;5000897;28;20235;-74
2022/06/01 04:42:41;;;;;;;26.73;14.93;;;;;10.80;100764.00;;;;5004188;28;23306;-75
2022/06/01 04:45:27;;;;;;;28.37;14.90;;;;;10.90;100758.00;;;;5002685;28;20309;-74
2022/06/01 04:48:14;;;;;;;28.67;14.77;;;;;11.00;100766.00;;;;5001351;28;20334;-74
2022/06/01 04:51:02;;;;;;;29.50;15.27;;;;;11.10;100764.00;;;;5001204;28;20277;-75
2022/06/01 04:53:48;;;;;;;24.93;14.30;;;;;11.20;100767.00;;;;4994316;28;20234;-75
2022/06/01 04:56:35;;;;;;;29.37;15.37;;;;;11.20;100762.00;;;;5003333;28;20378;-74
2022/06/01 04:59:21;;;;;;;29.97;15.97;;;;;11.30;100768.00;;;;5006247;28;20241;-74
2022/06/01 05:02:07;;;;;;;28.93;15.70;;;;;11.30;100758.00;;;;5007709;28;20230;-74
2022/06/01 05:04:55;;;;;;;25.30;14.93;;;;;11.30;100771.00;;;;5006668;28;20624;-74
2022/06/01 05:07:41;;;;;;;28.93;14.80;;;;;11.20;100766.00;;;;5005975;28;20774;-73
2022/06/01 05:10:28;;;;;;;24.80;14.83;;;;;11.20;100775.00;;;;5005707;28;20226;-73
2022/06/01 05:13:18;;;;;;;24.70;14.13;;;;;11.20;100770.00;;;;5007593;28;20740;-75
2022/06/01 05:16:07;;;;;;;31.07;15.43;;;;;11.20;100763.00;;;;5002381;28;20261;-74
2022/06/01 05:18:53;;;;;;;23.23;14.03;;;;;11.30;100764.00;;;;5002676;28;20236;-74
2022/06/01 05:21:41;;;;;;;27.53;14.97;;;;;11.50;100756.00;;;;5007869;28;20240;-73
2022/06/01 05:24:27;;;;;;;29.83;16.60;;;;;11.50;100764.00;;;;4999110;28;20228;-73
2022/06/01 05:27:14;;;;;;;27.07;15.33;;;;;11.70;100767.00;;;;5006911;28;20284;-75
2022/06/01 05:30:00;;;;;;;26.27;15.80;;;;;11.70;100770.00;;;;5002360;28;20324;-72
2022/06/01 05:32:47;;;;;;;30.10;16.07;;;;;11.70;100765.00;;;;5004735;28;20753;-74
2022/06/01 05:35:34;;;;;;;29.63;15.70;;;;;11.70;100763.00;;;;5005535;28;20953;-72
2022/06/01 05:38:21;;;;;;;26.83;15.47;;;;;11.80;100769.00;;;;5002382;28;20269;-74
2022/06/01 05:41:08;;;;;;;30.57;17.33;;;;;11.90;100763.00;;;;5005343;28;20234;-73
2022/06/01 05:43:55;;;;;;;31.87;15.13;;;;;12.00;100762.00;;;;5000863;28;20230;-74
2022/06/01 05:46:41;;;;;;;28.97;15.90;;;;;12.00;100778.00;;;;4998671;28;20234;-73
2022/06/01 05:49:28;;;;;;;26.47;15.83;;;;;12.10;100762.00;;;;5000381;28;20816;-73
2022/06/01 05:52:18;;;;;;;29.67;15.80;;;;;12.20;100775.00;;;;5006258;28;20419;-77
2022/06/01 05:55:08;;;;;;;27.07;16.03;;;;;12.20;100774.00;;;;5000642;28;20245;-72
2022/06/01 05:57:54;;;;;;;26.70;14.60;;;;;12.30;100766.00;;;;5002912;28;20242;-74
2022/06/01 06:00:40;;;;;;;25.67;14.67;;;;;12.30;100763.00;;;;5003612;28;20234;-73
2022/06/01 06:03:27;;;;;;;27.73;14.93;;;;;12.40;100764.00;;;;5005272;28;20365;-73
2022/06/01 06:06:17;;;;;;;26.67;14.30;;;;;12.40;100768.00;;;;5006538;28;20234;-73
2022/06/01 06:09:05;;;;;;;28.63;15.53;;;;;12.60;100767.00;;;;4974589;28;20602;-74
2022/06/01 06:11:53;;;;;;;25.10;13.80;;;;;12.70;100774.00;;;;4989111;28;20230;-73
2022/06/01 06:14:40;;;;;;;25.47;14.90;;;;;12.70;100769.00;;;;4993495;28;20346;-74
2022/06/01 06:17:26;;;;;;;26.83;15.03;;;;;12.90;100775.00;;;;5001352;28;20304;-73
2022/06/01 06:20:14;;;;;;;23.77;14.33;;;;;13.00;100771.00;;;;5000499;28;20226;-75
2022/06/01 06:23:00;;;;;;;27.63;15.33;;;;;12.90;100784.00;;;;5001786;28;20619;-74
2022/06/01 06:25:47;;;;;;;23.97;14.33;;;;;13.10;100784.00;;;;5002201;28;20233;-74
2022/06/01 06:28:35;;;;;;;21.83;13.67;;;;;13.10;100789.00;;;;5006029;28;20229;-71
2022/06/01 06:31:21;;;;;;;22.17;13.20;;;;;13.20;100792.00;;;;5002399;28;20809;-74
2022/06/01 06:34:08;;;;;;;24.70;13.83;;;;;13.30;100796.00;;;;5000306;28;20714;-75
2022/06/01 06:36:54;;;;;;;25.73;13.37;;;;;13.20;100794.00;;;;5003942;28;20245;-75
2022/06/01 06:39:41;;;;;;;26.13;13.03;;;;;13.20;100796.00;;;;5003491;28;20233;-75
2022/06/01 06:42:27;;;;;;;21.53;12.73;;;;;13.30;100800.00;;;;5004189;28;20234;-75
2022/06/01 06:45:15;;;;;;;22.50;12.27;;;;;13.30;100808.00;;;;5001343;28;20882;-75
2022/06/01 06:48:01;;;;;;;23.73;12.03;;;;;13.30;100812.00;;;;5000111;28;20234;-75
2022/06/01 06:50:48;;;;;;;18.23;10.90;;;;;13.40;100807.00;;;;5002484;28;20229;-75
2022/06/01 06:53:40;;;;;;;19.03;11.90;;;;;13.40;100813.00;;;;5004548;28;20229;-75
2022/06/01 06:56:27;;;;;;;21.60;11.57;;;;;13.50;100804.00;;;;4994519;28;20235;-75
2022/06/01 06:59:15;;;;;;;20.33;11.97;;;;;13.60;100810.00;;;;4998397;28;20231;-75
2022/06/01 07:02:03;;;;;;;20.53;11.37;;;;;13.70;100802.00;;;;4999020;28;20270;-75
2022/06/01 07:04:50;;;;;;;18.53;10.40;;;;;13.90;100805.00;;;;4990124;28;20302;-72
2022/06/01 07:07:36;;;;;;;21.07;11.50;;;;;14.00;100802.00;;;;4996852;28;20234;-75
2022/06/01 07:10:22;;;;;;;25.77;14.27;;;;;14.20;100810.00;;;;4992432;28;20277;-75
2022/06/01 07:13:09;;;;;;;19.53;11.40;;;;;14.30;100808.00;;;;4996598;28;20237;-76
2022/06/01 07:16:04;;;;;;;19.17;10.73;;;;;14.20;100808.00;;;;4994047;28;20605;-76
2022/06/01 07:18:53;;;;;;;16.00;9.63;;;;;14.30;100811.00;;;;4998105;28;20599;-76
2022/06/01 07:21:42;;;;;;;13.80;8.70;;;;;14.30;100807.00;;;;4998696;28;20305;-76
2022/06/01 07:24:28;;;;;;;13.57;7.53;;;;;14.60;100812.00;;;;4999738;28;20238;-75
2022/06/01 07:27:14;;;;;;;15.33;8.50;;;;;14.70;100814.00;;;;4991629;28;20238;-72
2022/06/01 07:30:00;;;;;;;12.80;7.33;;;;;14.80;100819.00;;;;4998626;28;20249;-76
2022/06/01 07:32:47;;;;;;;11.23;6.30;;;;;14.90;100815.00;;;;4984392;28;20234;-76
2022/06/01 07:35:35;;;;;;;11.57;5.77;;;;;15.00;100814.00;;;;4994115;28;20247;-73
2022/06/01 07:44:35;;;;;;;8.33;5.13;;;;;15.40;100823.00;;;;4994619;28;20846;-75
2022/06/01 07:47:22;;;;;;;7.60;5.00;;;;;15.30;100824.00;;;;4999095;28;20334;-74
2022/06/01 07:50:29;;;;;;;8.37;5.70;;;;;15.30;100829.00;;;;5003438;28;20276;-71
2022/06/01 07:53:33;;;;;;;9.37;5.53;;;;;15.40;100826.00;;;;5004261;28;20238;-74
2022/06/01 07:56:19;;;;;;;7.83;5.77;;;;;15.60;100825.00;;;;4997277;28;20749;-74
2022/06/01 07:59:06;;;;;;;7.97;5.97;;;;;15.50;100823.00;;;;5001609;28;20330;-74
2022/06/01 08:01:52;;;;;;;9.33;6.70;;;;;15.50;100826.00;;;;4996470;28;20234;-74
2022/06/01 08:04:39;;;;;;;8.93;6.57;;;;;15.40;100828.00;;;;5003924;28;20405;-70
2022/06/01 08:07:28;;;;;;;10.60;6.13;;;;;15.60;100831.00;;;;5004395;28;20243;-74
2022/06/01 08:10:18;;;;;;;8.97;5.63;;;;;15.70;100817.00;;;;5000481;28;20326;-74
2022/06/01 08:13:09;;;;;;;6.23;4.73;;;;;15.90;100829.00;;;;5002262;28;20258;-71
2022/06/01 08:15:56;;;;;;;6.10;4.97;;;;;16.20;100819.00;;;;5003540;28;20238;-76
2022/06/01 08:18:43;;;;;;;6.03;4.90;;;;;16.40;100814.00;;;;4995133;28;20233;-74
2022/06/01 08:21:29;;;;;;;5.83;4.70;;;;;16.50;100817.00;;;;4995879;28;20310;-74
2022/06/01 08:24:16;;;;;;;8.13;4.70;;;;;16.20;100843.00;;;;4996870;28;20624;-74
2022/06/01 08:27:04;;;;;;;6.03;4.33;;;;;16.10;100838.00;;;;5001883;28;20231;-73
2022/06/01 08:29:50;;;;;;;7.80;4.43;;;;;16.00;100845.00;;;;5002489;28;20310;-74
2022/06/01 08:32:37;;;;;;;5.37;4.17;;;;;15.90;100844.00;;;;5005938;28;20793;-74
2022/06/01 08:35:27;;;;;;;4.47;3.57;;;;;16.00;100844.00;;;;5004568;28;20226;-74
2022/06/01 08:38:14;;;;;;;4.53;3.60;;;;;16.10;100846.00;;;;5006592;28;20302;-74
2022/06/01 08:41:04;;;;;;;3.93;3.33;;;;;16.00;100852.00;;;;5006306;28;20243;-75
2022/06/01 08:43:54;;;;;;;3.93;3.47;;;;;16.00;100838.00;;;;4999295;28;20234;-75
2022/06/01 08:46:41;;;;;;;4.20;3.60;;;;;16.10;100835.00;;;;4994197;28;20289;-74
2022/06/01 08:49:30;;;;;;;5.60;3.30;;;;;15.90;100853.00;;;;5006106;28;20231;-72
2022/06/01 08:52:17;;;;;;;4.57;3.27;;;;;15.80;100846.00;;;;5003156;28;20246;-72
2022/06/01 08:55:03;;;;;;;4.80;3.67;;;;;15.80;100844.00;;;;4998107;28;20663;-72
2022/06/01 08:57:57;;;;;;;7.00;3.67;;;;;15.90;100852.00;;;;5002817;28;20766;-74
2022/06/01 09:00:51;;;;;;;4.57;3.37;;;;;16.20;100847.00;;;;5006978;28;20293;-74
2022/06/01 09:03:49;;;;;;;5.93;3.60;;;;;16.50;100844.00;;;;5006945;28;20230;-73
2022/06/01 09:06:39;;;;;;;5.97;3.90;;;;;16.80;100837.00;;;;5006567;28;22182;-74
2022/06/01 09:09:31;;;;;;;4.30;3.50;;;;;16.90;100848.00;;;;5006205;28;20227;-74
2022/06/01 09:12:17;;;;;;;6.40;3.60;;;;;16.80;100838.00;;;;5006740;28;20265;-74
2022/06/01 09:15:12;;;;;;;5.03;3.77;;;;;16.60;100846.00;;;;5007435;28;20238;-73
2022/06/01 09:18:09;;;;;;;4.07;3.13;;;;;16.60;100854.00;;;;5002178;28;20234;-74
2022/06/01 09:24:14;;;;;;;4.87;3.03;;;;;17.30;100844.00;;;;5002771;28;20239;-74
2022/06/01 09:27:08;;;;;;;3.23;2.93;;;;;17.90;100851.00;;;;4997269;28;20282;-74
2022/06/01 09:29:55;;;;;;;5.27;3.30;;;;;18.20;100844.00;;;;4999236;28;20281;-74
2022/06/01 09:32:41;;;;;;;3.20;2.90;;;;;18.40;100853.00;;;;5004246;28;20238;-74
2022/06/01 09:35:41;;;;;;;3.50;2.83;;;;;18.30;100853.00;;;;4999966;28;20227;-74
2022/06/01 09:38:37;;;;;;;2.73;2.53;;;;;18.00;100849.00;;;;4985328;28;20332;-74
2022/06/01 09:41:30;;;;;;;3.57;2.90;;;;;17.70;100845.00;;;;5000314;28;20332;-75
2022/06/01 09:44:18;;;;;;;10.63;6.43;;;;;18.00;100839.00;;;;5002902;28;20304;-73
2022/06/01 09:47:05;;;;;;;3.17;2.87;;;;;18.50;100845.00;;;;5007820;28;20245;-72
2022/06/01 09:49:53;;;;;;;4.10;2.40;;;;;18.80;100834.00;;;;4999530;28;20249;-74
2022/06/01 09:52:42;;;;;;;4.93;2.93;;;;;18.50;100834.00;;;;5000806;28;20233;-74
2022/06/01 09:55:31;;;;;;;2.93;2.67;;;;;18.30;100843.00;;;;5003812;28;21066;-74
2022/06/01 10:07:47;;;;;;;4.03;2.50;;;;;19.20;100823.00;;;;4898101;29;21106;-74
2022/06/01 10:10:33;;;;;;;3.67;2.80;;;;;19.30;100833.00;;;;5002926;28;20218;-73
2022/06/01 10:13:29;;;;;;;4.53;3.30;;;;;19.00;100832.00;;;;5002273;28;20229;-72
2022/06/01 10:16:37;;;;;;;3.93;3.37;;;;;19.10;100808.00;;;;4995558;28;20242;-74
2022/06/01 10:19:29;;;;;;;3.40;3.10;;;;;19.40;100843.00;;;;5003834;28;20237;-72
2022/06/01 10:22:24;;;;;;;5.23;3.03;;;;;19.50;100832.00;;;;5003139;28;20292;-76
2022/06/01 10:25:16;;;;;;;3.90;3.30;;;;;19.70;100821.00;;;;4999025;28;20229;-73
2022/06/01 10:28:06;;;;;;;3.53;3.17;;;;;19.90;100824.00;;;;4999551;28;20230;-73
2022/06/01 10:31:26;;;;;;;3.30;3.00;;;;;20.00;100823.00;;;;5004330;28;20230;-73
2022/06/01 10:34:18;;;;;;;3.10;2.70;;;;;20.40;100827.00;;;;4996925;28;20231;-74
2022/06/01 10:37:14;;;;;;;3.10;2.50;;;;;20.60;100834.00;;;;4997219;28;20230;-73
2022/06/01 10:40:05;;;;;;;2.57;2.37;;;;;20.70;100829.00;;;;4994660;28;20230;-74
2022/06/01 10:46:08;;;;;;;3.30;2.20;;;;;20.70;100833.00;;;;4991344;28;20861;-73
2022/06/01 10:49:04;;;;;;;2.77;2.27;;;;;20.60;100838.00;;;;4993302;28;20229;-72
2022/06/01 10:51:57;;;;;;;2.67;2.47;;;;;20.60;100834.00;;;;4997612;28;20586;-75
2022/06/01 10:55:02;;;;;;;4.33;2.67;;;;;21.00;100832.00;;;;5001272;28;20284;-75
2022/06/01 10:57:50;;;;;;;3.13;2.67;;;;;21.20;100833.00;;;;4997233;28;20230;-76
2022/06/01 11:00:43;;;;;;;3.00;2.70;;;;;20.70;100844.00;;;;5005940;28;20238;-74
2022/06/01 11:03:44;;;;;;;4.40;3.03;;;;;20.20;100837.00;;;;5000315;28;20229;-74
2022/06/01 11:06:51;;;;;;;2.80;2.50;;;;;20.20;100844.00;;;;5003849;28;20730;-75
2022/06/01 11:09:47;;;;;;;2.53;2.33;;;;;20.90;100836.00;;;;4998849;28;20233;-75
2022/06/01 11:12:42;;;;;;;2.90;2.60;;;;;21.10;100837.00;;;;5002145;28;20229;-76
2022/06/01 11:15:37;;;;;;;3.90;2.60;;;;;21.00;100837.00;;;;5002499;28;20230;-74
2022/06/01 11:18:39;;;;;;;3.07;2.70;;;;;20.70;100848.00;;;;5003100;28;20229;-74
2022/06/01 11:21:32;;;;;;;2.20;2.00;;;;;20.40;100851.00;;;;4999483;28;20936;-74
2022/06/01 11:24:35;;;;;;;4.13;2.33;;;;;20.30;100843.00;;;;4994029;28;20730;-74
2022/06/01 11:27:38;;;;;;;3.10;2.37;;;;;19.90;100853.00;;;;5002993;28;20225;-75
2022/06/01 11:30:27;;;;;;;4.50;2.20;;;;;19.90;100853.00;;;;5000768;28;20382;-75
2022/06/01 11:33:20;;;;;;;2.40;2.20;;;;;20.20;100836.00;;;;5004356;28;20721;-74
2022/06/01 11:36:22;;;;;;;3.77;2.10;;;;;20.00;100855.00;;;;4999912;28;20683;-75
2022/06/01 11:39:16;;;;;;;2.23;2.03;;;;;20.00;100854.00;;;;4999473;28;20353;-74
2022/06/01 11:42:07;;;;;;;3.70;2.50;;;;;20.30;100858.00;;;;5000209;28;20748;-74
2022/06/01 11:45:00;;;;;;;2.60;2.40;;;;;21.00;100867.00;;;;4999949;28;20266;-75
2022/06/01 11:47:52;;;;;;;3.73;2.67;;;;;21.30;100854.00;;;;5001584;28;20234;-74
2022/06/01 11:50:55;;;;;;;3.03;2.50;;;;;21.10;100860.00;;;;5004744;28;20651;-74
2022/06/01 11:53:58;;;;;;;2.47;2.23;;;;;21.20;100857.00;;;;4990920;28;20340;-74
2022/06/01 11:56:52;;;;;;;2.43;2.07;;;;;21.10;100858.00;;;;5004578;28;20234;-73
2022/06/01 11:59:47;;;;;;;4.00;2.30;;;;;20.90;100852.00;;;;4997450;28;20231;-73
2022/06/01 12:02:42;;;;;;;2.40;2.20;;;;;20.90;100846.00;;;;5005160;28;20229;-72
2022/06/01 12:05:33;;;;;;;3.20;2.00;;;;;20.70;100839.00;;;;4989894;28;20246;-73
2022/06/01 12:08:23;;;;;;;2.47;2.00;;;;;20.10;100850.00;;;;5004548;28;20223;-72
2022/06/01 12:11:15;;;;;;;2.20;1.90;;;;;19.80;100869.00;;;;5000486;28;20227;-73
2022/06/01 12:14:02;;;;;;;3.00;2.10;;;;;19.50;100863.00;;;;5002189;28;20650;-75
2022/06/01 12:17:23;;;;;;;3.07;2.30;;;;;19.50;100874.00;;;;4998152;28;20366;-74
2022/06/01 12:20:42;;;;;;;3.20;2.30;;;;;19.30;100875.00;;;;5000366;28;20226;-74
2022/06/01 12:29:54;;;;;;;2.50;2.30;;;;;19.00;100932.00;;;;4997934;28;20230;-73
2022/06/01 12:33:08;;;;;;;3.47;2.93;;;;;18.70;100926.00;;;;5003475;28;20796;-71
2022/06/01 12:35:57;;;;;;;2.90;2.50;;;;;18.40;100921.00;;;;4996951;28;20247;-73
2022/06/01 12:38:45;;;;;;;2.80;2.60;;;;;18.20;100922.00;;;;4991558;28;20305;-73
2022/06/01 12:41:35;;;;;;;4.30;2.70;;;;;18.00;100913.00;;;;5002647;28;20357;-73
2022/06/01 12:44:23;;;;;;;3.90;2.73;;;;;17.60;100925.00;;;;5004142;28;20293;-73
2022/06/01 12:47:23;;;;;;;2.57;2.37;;;;;17.70;100925.00;;;;5001775;28;20288;-73
2022/06/01 12:50:13;;;;;;;3.77;2.87;;;;;17.60;100934.00;;;;5000087;28;20226;-72
2022/06/01 12:53:11;;;;;;;3.23;2.63;;;;;17.30;100941.00;;;;5003291;28;20234;-74
2022/06/01 12:56:07;;;;;;;6.20;2.63;;;;;17.50;100952.00;;;;4997975;28;20281;-71
2022/06/01 12:58:54;;;;;;;3.17;2.87;;;;;17.30;100952.00;;;;5004354;28;20400;-73
2022/06/01 13:01:43;;;;;;;3.47;2.70;;;;;17.20;100955.00;;;;4994499;28;20225;-71
2022/06/01 13:04:29;;;;;;;4.13;2.80;;;;;17.40;100974.00;;;;5000591;28;20226;-71
2022/06/01 13:07:18;;;;;;;3.57;2.90;;;;;17.60;100958.00;;;;5002376;28;20284;-72
2022/06/01 13:10:07;;;;;;;2.83;2.50;;;;;17.90;100969.00;;;;4995226;28;20235;-72
2022/06/01 13:13:02;;;;;;;2.40;2.17;;;;;17.90;100975.00;;;;5001202;28;20716;-74
2022/06/01 13:15:59;;;;;;;2.53;1.90;;;;;18.10;100967.00;;;;5004358;28;20266;-72
2022/06/01 13:18:48;;;;;;;1.63;1.53;;;;;18.20;100975.00;;;;4991536;28;20329;-74
2022/06/01 13:21:41;;;;;;;1.83;1.73;;;;;18.50;100976.00;;;;4995964;28;20229;-73
2022/06/01 13:24:30;;;;;;;3.50;2.50;;;;;18.60;100967.00;;;;4992007;28;20597;-74
2022/06/01 13:27:18;;;;;;;4.23;1.70;;;;;18.80;100968.00;;;;5002938;28;20719;-73
2022/06/01 13:30:05;;;;;;;2.90;1.70;;;;;19.40;100972.00;;;;5000102;28;20222;-72
2022/06/01 13:32:52;;;;;;;1.60;1.50;;;;;19.50;100966.00;;;;5007167;28;20737;-73
2022/06/01 13:35:44;;;;;;;2.17;1.70;;;;;19.50;100977.00;;;;4992999;28;20225;-72
2022/06/01 13:38:37;;;;;;;1.57;1.47;;;;;19.30;100971.00;;;;5002314;28;20222;-71
2022/06/01 13:41:33;;;;;;;1.90;1.50;;;;;18.80;100976.00;;;;4992841;28;20606;-71
2022/06/01 13:44:50;;;;;;;1.20;1.17;;;;;18.30;100971.00;;;;4999521;28;20222;-72
2022/06/01 13:47:40;;;;;;;1.50;1.40;;;;;18.00;100979.00;;;;5006356;28;20293;-72
2022/06/01 13:50:29;;;;;;;1.40;1.30;;;;;18.10;100974.00;;;;5000033;28;20594;-71
2022/06/01 13:53:29;;;;;;;1.60;1.50;;;;;17.80;100983.00;;;;4999738;28;20923;-73
2022/06/01 13:56:29;;;;;;;1.43;1.33;;;;;18.00;100975.00;;;;5003965;28;20230;-73
2022/06/01 13:59:30;;;;;;;1.53;1.43;;;;;18.20;100978.00;;;;4999328;28;20950;-72
2022/06/01 14:02:22;;;;;;;1.70;1.60;;;;;18.60;100980.00;;;;5000589;28;20321;-72
2022/06/01 14:05:16;;;;;;;2.10;1.77;;;;;19.30;100970.00;;;;5001385;28;20229;-73
2022/06/01 14:08:08;;;;;;;2.97;2.67;;;;;19.50;100973.00;;;;5003025;28;20237;-71
2022/06/01 14:10:58;;;;;;;2.10;1.93;;;;;19.90;100968.00;;;;5004288;28;20234;-73
2022/06/01 14:13:47;;;;;;;1.77;1.67;;;;;20.20;100966.00;;;;5005465;28;20254;-73
2022/06/01 14:16:34;;;;;;;1.90;1.80;;;;;20.60;100970.00;;;;4977972;28;20702;-72
2022/06/01 14:19:20;;;;;;;2.10;1.90;;;;;20.10;100967.00;;;;5006374;28;20225;-77
2022/06/01 14:22:09;;;;;;;1.90;1.80;;;;;20.00;100970.00;;;;5001730;28;20246;-73
2022/06/01 14:31:13;;;;;;;3.03;2.00;;;;;19.30;100982.00;;;;5000333;28;20960;-74
2022/06/01 14:34:00;;;;;;;2.80;2.03;;;;;19.00;100985.00;;;;5001479;28;20242;-72
2022/06/01 14:36:46;;;;;;;1.93;1.83;;;;;18.90;100986.00;;;;5004105;28;20226;-71
2022/06/01 14:39:33;;;;;;;2.43;1.70;;;;;18.70;100980.00;;;;5006092;28;20259;-72